Time;durP1;ratioP1;P1;durP2;ratioP2;P2;SDS_P1;SDS_P2;PMS_P1;PMS_P2;Temp;Humidity;BMP_temperature;BMP_pressure;BME280_temperature;BME280_humidity;BME280_pressure;Samples;Min_cycle;Max_cycle;Signal;HPM_P1;HPM_P2
2022/08/11 00:02:31;;;;;;;;;;;16.60;99.90;;;;;;5154271;27;19911;-74
2022/08/11 00:05:00;;;;;;;;;;;16.50;99.90;;;;;;5154861;27;19911;-74
2022/08/11 00:07:25;;;;;;;;;;;16.40;99.90;;;;;;5154515;27;19973;-74
2022/08/11 00:09:52;;;;;;;;;;;16.50;99.90;;;;;;5154711;27;19908;-74
2022/08/11 00:12:17;;;;;;;;;;;16.50;99.90;;;;;;5154072;27;19946;-74
2022/08/11 00:14:43;;;;;;;;;;;16.50;99.90;;;;;;5154622;27;19961;-74
2022/08/11 00:17:13;;;;;;;;;;;16.50;99.90;;;;;;5153949;27;20347;-74
2022/08/11 00:19:47;;;;;;;;;;;16.50;99.90;;;;;;5154614;27;19903;-74
2022/08/11 00:22:19;;;;;;;;;;;16.40;99.90;;;;;;5154066;27;20026;-74
2022/08/11 00:24:45;;;;;;;;;;;16.20;99.90;;;;;;5154532;27;19903;-73
2022/08/11 00:27:11;;;;;;;;;;;16.10;99.90;;;;;;5153799;27;19903;-74
2022/08/11 00:29:37;;;;;;;;;;;16.00;99.90;;;;;;5136071;27;19952;-74
2022/08/11 00:32:04;;;;;;;;;;;16.10;99.90;;;;;;5154087;27;19968;-74
2022/08/11 00:34:32;;;;;;;;;;;16.00;99.90;;;;;;5153687;27;19911;-73
2022/08/11 00:37:02;;;;;;;;;;;16.00;99.90;;;;;;5154257;27;19903;-73
2022/08/11 00:39:30;;;;;;;;;;;16.00;99.90;;;;;;5153917;27;19910;-74
2022/08/11 00:41:58;;;;;;;;;;;16.10;99.90;;;;;;5154271;27;20258;-73
2022/08/11 00:44:24;;;;;;;;;;;16.10;99.90;;;;;;5153554;27;19903;-73
2022/08/11 00:47:14;;;;;;;;;;;16.10;99.90;;;;;;5154282;27;20232;-73
2022/08/11 00:49:48;;;;;;;;;;;16.20;99.90;;;;;;5154237;27;19955;-73
2022/08/11 00:52:26;;;;;;;;;;;16.10;99.90;;;;;;5153944;27;20270;-73
2022/08/11 00:55:01;;;;;;;;;;;16.00;99.90;;;;;;5154328;27;19914;-73
2022/08/11 00:57:45;;;;;;;;;;;15.90;99.90;;;;;;5156404;27;19903;-72
2022/08/11 01:00:13;;;;;;;;;;;15.80;99.90;;;;;;5157544;27;19948;-74
2022/08/11 01:02:45;;;;;;;;;;;15.80;99.90;;;;;;5158120;27;19910;-74
2022/08/11 01:05:27;;;;;;;;;;;15.80;99.90;;;;;;5157565;27;19903;-74
2022/08/11 01:08:11;;;;;;;;;;;15.90;99.90;;;;;;5158062;27;20035;-73
2022/08/11 01:10:55;;;;;;;;;;;15.90;99.90;;;;;;5158235;27;19903;-73
2022/08/11 01:13:20;;;;;;;;;;;15.80;99.90;;;;;;5138795;27;20271;-73
2022/08/11 01:15:52;;;;;;;;;;;15.60;99.90;;;;;;5157598;27;19911;-73
2022/08/11 01:18:34;;;;;;;;;;;15.50;99.90;;;;;;5138665;27;19903;-73
2022/08/11 01:21:20;;;;;;;;;;;15.50;99.90;;;;;;5157708;27;19997;-73
2022/08/11 01:24:04;;;;;;;;;;;15.50;99.90;;;;;;5155864;27;19950;-73
2022/08/11 01:26:39;;;;;;;;;;;15.60;99.90;;;;;;5157060;27;19915;-73
2022/08/11 01:29:07;;;;;;;;;;;15.60;99.90;;;;;;5157711;27;19903;-73
2022/08/11 01:31:51;;;;;;;;;;;15.70;99.90;;;;;;5156999;27;20003;-73
2022/08/11 01:34:26;;;;;;;;;;;15.70;99.90;;;;;;5157047;27;20370;-73
2022/08/11 01:36:55;;;;;;;;;;;15.60;99.90;;;;;;5157383;27;19997;-73
2022/08/11 01:39:39;;;;;;;;;;;15.60;99.90;;;;;;5138438;27;19904;-73
2022/08/11 01:45:27;;;;;;;;;;;15.50;99.90;;;;;;5077785;27;20370;-73
2022/08/11 01:47:55;;;;;;;;;;;15.40;99.90;;;;;;5157630;27;19948;-73
2022/08/11 01:50:26;;;;;;;;;;;15.40;99.90;;;;;;5156488;27;19910;-72
2022/08/11 01:53:00;;;;;;;;;;;15.40;99.90;;;;;;5157123;27;19907;-72
2022/08/11 01:55:44;;;;;;;;;;;15.40;99.90;;;;;;5156885;27;19994;-73
2022/08/11 01:58:25;;;;;;;;;;;15.50;99.90;;;;;;5156866;27;19903;-73
2022/08/11 02:01:00;;;;;;;;;;;15.50;99.90;;;;;;5157185;27;19903;-73
2022/08/11 02:03:36;;;;;;;;;;;15.40;99.90;;;;;;5156015;27;20002;-74
2022/08/11 02:09:04;;;;;;;;;;;15.30;99.90;;;;;;5155947;27;19959;-73
2022/08/11 02:11:32;;;;;;;;;;;15.30;99.90;;;;;;5156084;27;19903;-73
2022/08/11 02:13:58;;;;;;;;;;;15.40;99.90;;;;;;5156320;27;19929;-73
2022/08/11 02:16:23;;;;;;;;;;;15.30;99.90;;;;;;5155784;27;20001;-73
2022/08/11 02:25:07;;;;;;;;;;;15.40;99.90;;;;;;5156617;27;19952;-72
2022/08/11 02:27:55;;;;;;;;;;;15.40;99.90;;;;;;5155902;27;19903;-73
2022/08/11 02:30:23;;;;;;;;;;;15.30;99.90;;;;;;5107120;27;20407;-73
2022/08/11 02:35:50;;;;;;;;;;;15.00;99.90;;;;;;5156127;27;19959;-73
2022/08/11 02:38:23;;;;;;;;;;;15.00;99.90;;;;;;5155778;27;19907;-74
2022/08/11 02:40:51;;;;;;;;;;;15.00;99.90;;;;;;5155655;27;19915;-73
2022/08/11 02:43:28;;;;;;;;;;;15.00;99.90;;;;;;5155766;27;19915;-73
2022/08/11 02:46:05;;;;;;;;;;;15.00;99.90;;;;;;5137722;27;19903;-73
2022/08/11 02:51:36;;;;;;;;;;;14.90;99.90;;;;;;5155281;27;19910;-73
2022/08/11 02:54:07;;;;;;;;;;;14.90;99.90;;;;;;5155940;27;19943;-73
2022/08/11 02:56:51;;;;;;;;;;;14.90;99.90;;;;;;5155233;27;19914;-73
2022/08/11 03:02:14;;;;;;;;;;;14.80;99.90;;;;;;5155556;27;20251;-74
2022/08/11 03:04:44;;;;;;;;;;;14.70;99.90;;;;;;5155125;27;19913;-74
2022/08/11 03:07:27;;;;;;;;;;;14.70;99.90;;;;;;5155527;27;20011;-74
2022/08/11 03:09:54;;;;;;;;;;;14.70;99.90;;;;;;5155822;27;19926;-73
2022/08/11 03:16:44;;;;;;;;;;;14.80;99.90;;;;;;5145447;27;19918;-73
2022/08/11 03:18:37;;;;;;;;;;;14.80;99.90;;;;;;5154394;27;19910;-74
2022/08/11 03:21:19;;;;;;;;;;;14.80;99.90;;;;;;5155243;27;20419;-73
2022/08/11 03:23:45;;;;;;;;;;;14.80;99.90;;;;;;5155462;27;19904;-73
2022/08/11 03:26:26;;;;;;;;;;;14.80;99.90;;;;;;5155400;27;19948;-73
2022/08/11 03:29:11;;;;;;;;;;;14.60;99.90;;;;;;5155328;27;19903;-74
2022/08/11 03:31:43;;;;;;;;;;;14.40;99.90;;;;;;5154388;27;19914;-74
2022/08/11 03:34:12;;;;;;;;;;;14.40;99.90;;;;;;5155102;27;19906;-73
2022/08/11 03:36:43;;;;;;;;;;;14.40;99.90;;;;;;5154294;27;20418;-73
2022/08/11 03:39:15;;;;;;;;;;;14.40;99.90;;;;;;5155419;27;20295;-73
2022/08/11 03:41:48;;;;;;;;;;;14.30;99.90;;;;;;5154648;27;19919;-74
2022/08/11 03:44:26;;;;;;;;;;;14.30;99.90;;;;;;5154947;27;19993;-73
2022/08/11 03:46:54;;;;;;;;;;;14.40;99.90;;;;;;5154975;27;19917;-73
2022/08/11 03:49:39;;;;;;;;;;;14.40;99.90;;;;;;5154792;27;19956;-74
2022/08/11 03:52:04;;;;;;;;;;;14.40;99.90;;;;;;5155087;27;19903;-73
2022/08/11 03:54:42;;;;;;;;;;;14.30;99.90;;;;;;5154419;27;20408;-74
2022/08/11 03:57:26;;;;;;;;;;;14.30;99.90;;;;;;5154781;27;19903;-73
2022/08/11 03:59:52;;;;;;;;;;;14.30;99.90;;;;;;5155187;27;19939;-73
2022/08/11 04:02:36;;;;;;;;;;;14.20;99.90;;;;;;5154797;27;19926;-74
2022/08/11 04:05:06;;;;;;;;;;;14.20;99.90;;;;;;5154731;27;19971;-73
2022/08/11 04:07:31;;;;;;;;;;;14.20;99.90;;;;;;5154229;27;19904;-73
2022/08/11 04:09:57;;;;;;;;;;;14.20;99.90;;;;;;5154642;27;20299;-73
2022/08/11 04:12:22;;;;;;;;;;;14.20;99.90;;;;;;5154290;27;19997;-74
2022/08/11 04:18:10;;;;;;;;;;;14.20;99.90;;;;;;5154747;27;19948;-74
2022/08/11 04:20:54;;;;;;;;;;;14.20;99.90;;;;;;5154039;27;19903;-74
2022/08/11 04:23:38;;;;;;;;;;;14.20;99.90;;;;;;5154584;27;19903;-73
2022/08/11 04:26:06;;;;;;;;;;;14.20;99.90;;;;;;5154377;27;20340;-73
2022/08/11 04:28:41;;;;;;;;;;;14.10;99.90;;;;;;5154020;27;19918;-73
2022/08/11 04:31:19;;;;;;;;;;;14.20;99.90;;;;;;5155208;27;19911;-73
2022/08/11 04:33:56;;;;;;;;;;;14.10;99.90;;;;;;5139643;27;19915;-73
2022/08/11 04:39:24;;;;;;;;;;;14.00;99.90;;;;;;5158321;27;20412;-73
2022/08/11 04:44:59;;;;;;;;;;;14.00;99.90;;;;;;5158141;27;19951;-74
2022/08/11 05:02:16;;;;;;;;;;;13.90;99.90;;;;;;5158369;27;19925;-74
2022/08/11 05:08:05;;;;;;;;;;;13.80;99.90;;;;;;5157295;27;19918;-74
2022/08/11 05:10:49;;;;;;;;;;;13.80;99.90;;;;;;5157414;27;19925;-74
2022/08/11 05:35:49;;;;;;;;;;;13.80;99.90;;;;;;5156740;27;19914;-73
2022/08/11 05:57:44;;;;;;;;;;;15.10;99.90;;;;;;5156646;27;20366;-73
2022/08/11 06:00:10;;;;;;;;;;;15.30;99.90;;;;;;5157007;27;19903;-73
2022/08/11 06:02:40;;;;;;;;;;;15.40;99.90;;;;;;5156433;27;19960;-73
2022/08/11 06:05:06;;;;;;;;;;;15.60;99.90;;;;;;5156718;27;20372;-73
2022/08/11 06:07:32;;;;;;;;;;;15.80;99.90;;;;;;5156227;27;19937;-74
2022/08/11 06:09:59;;;;;;;;;;;16.00;99.90;;;;;;5156699;27;19907;-73
2022/08/11 06:12:34;;;;;;;;;;;16.10;99.90;;;;;;5156703;27;19907;-73
2022/08/11 06:15:02;;;;;;;;;;;16.10;99.90;;;;;;5156489;27;20003;-73
2022/08/11 06:17:32;;;;;;;;;;;16.20;99.90;;;;;;5156578;27;19903;-73
2022/08/11 06:20:03;;;;;;;;;;;16.40;99.90;;;;;;5157005;27;19903;-74
2022/08/11 06:22:30;;;;;;;;;;;16.50;99.90;;;;;;5156262;27;19907;-74
2022/08/11 06:24:59;;;;;;;;;;;16.70;99.90;;;;;;5156275;27;20006;-74
2022/08/11 06:27:26;;;;;;;;;;;16.90;99.90;;;;;;5156176;27;19954;-74
2022/08/11 06:29:53;;;;;;;;;;;17.00;99.90;;;;;;5155766;27;20371;-74
2022/08/11 06:32:19;;;;;;;;;;;17.20;99.90;;;;;;5155674;27;19907;-74
2022/08/11 06:34:55;;;;;;;;;;;17.30;99.90;;;;;;5155731;27;20367;-74
2022/08/11 06:37:23;;;;;;;;;;;17.40;99.90;;;;;;5156416;27;19903;-74
2022/08/11 06:39:51;;;;;;;;;;;17.60;99.90;;;;;;5155224;27;19947;-74
2022/08/11 06:42:36;;;;;;;;;;;17.70;99.90;;;;;;5155814;27;19915;-74
2022/08/11 06:45:19;;;;;;;;;;;17.80;99.90;;;;;;5156061;27;19903;-74
2022/08/11 06:47:48;;;;;;;;;;;18.00;99.90;;;;;;5155045;27;19903;-74
2022/08/11 06:53:06;;;;;;;;;;;18.20;99.90;;;;;;5155656;27;19914;-74
2022/08/11 07:01:11;;;;;;;;;;;18.60;99.90;;;;;;5155641;27;19925;-74
2022/08/11 07:03:45;;;;;;;;;;;18.70;99.90;;;;;;5154999;27;19903;-72
2022/08/11 07:06:22;;;;;;;;;;;18.90;99.90;;;;;;5155495;27;19903;-74
2022/08/11 07:17:48;;;;;;;;;;;19.30;99.90;;;;;;5154740;27;20340;-75
2022/08/11 07:31:24;;;;;;;;;;;19.90;99.90;;;;;;5154853;27;20267;-74
2022/08/11 07:33:52;;;;;;;;;;;20.00;99.90;;;;;;5154691;27;20351;-74
2022/08/11 07:36:19;;;;;;;;;;;20.20;99.90;;;;;;5155214;27;19907;-74
2022/08/11 07:38:49;;;;;;;;;;;20.30;99.90;;;;;;5148189;27;19904;-74
2022/08/11 07:41:16;;;;;;;;;;;20.40;99.90;;;;;;5155394;27;19954;-73
2022/08/11 07:43:43;;;;;;;;;;;20.50;99.90;;;;;;5154650;27;19903;-75
2022/08/11 07:54:23;;;;;;;;;;;21.00;99.90;;;;;;5154935;27;20379;-74
2022/08/11 07:56:49;;;;;;;;;;;21.10;99.90;;;;;;5154247;27;19914;-74
2022/08/11 08:18:32;;;;;;;;;;;21.90;99.90;;;;;;5154138;27;19910;-74
2022/08/11 08:21:10;;;;;;;;;;;22.00;99.90;;;;;;5153545;27;20554;-74
2022/08/11 08:23:37;;;;;;;;;;;22.00;99.90;;;;;;5154259;27;19914;-73
2022/08/11 08:26:57;;;;;;;;;;;22.10;99.90;;;;;;5154302;27;19907;-74
2022/08/11 08:28:52;;;;;;;;;;;22.20;99.90;;;;;;5153348;27;19990;-74
2022/08/11 08:31:18;;;;;;;;;;;22.40;99.90;;;;;;5154343;27;20343;-74
2022/08/11 08:33:43;;;;;;;;;;;22.40;99.90;;;;;;5153245;27;19922;-74
2022/08/11 08:36:14;;;;;;;;;;;22.50;99.90;;;;;;5153926;27;19998;-74
2022/08/11 08:38:51;;;;;;;;;;;22.50;99.90;;;;;;5154158;27;19964;-75
2022/08/11 08:41:19;;;;;;;;;;;22.50;99.90;;;;;;5135750;27;19919;-74
2022/08/11 08:43:47;;;;;;;;;;;22.60;99.90;;;;;;5153194;27;19907;-74
2022/08/11 08:46:14;;;;;;;;;;;22.70;99.90;;;;;;5153816;27;20331;-74
2022/08/11 08:48:40;;;;;;;;;;;22.80;99.90;;;;;;5135336;27;20232;-74
2022/08/11 08:53:58;;;;;;;;;;;23.00;99.90;;;;;;5152932;27;19998;-74
2022/08/11 08:56:27;;;;;;;;;;;23.10;99.90;;;;;;5154146;27;19907;-74
2022/08/11 08:58:53;;;;;;;;;;;23.00;99.90;;;;;;5153318;27;19926;-74
2022/08/11 09:01:21;;;;;;;;;;;23.10;99.90;;;;;;5154181;27;20335;-74
2022/08/11 09:03:46;;;;;;;;;;;23.10;99.90;;;;;;5153439;27;19914;-74
2022/08/11 09:06:15;;;;;;;;;;;23.10;99.90;;;;;;5135119;27;19903;-74
2022/08/11 09:08:41;;;;;;;;;;;23.30;99.90;;;;;;5153324;27;20001;-74
2022/08/11 09:13:51;;;;;;;;;;;23.40;99.90;;;;;;5153129;27;19990;-74
2022/08/11 09:16:17;;;;;;;;;;;23.50;99.90;;;;;;5153694;27;20404;-73
2022/08/11 09:18:43;;;;;;;;;;;23.50;99.90;;;;;;5156454;27;19951;-74
2022/08/11 09:21:10;;;;;;;;;;;23.50;99.90;;;;;;5157074;27;19911;-74
2022/08/11 09:29:07;;;;;;;;;;;23.80;99.90;;;;;;5157278;27;20041;-74
2022/08/11 09:31:33;;;;;;;;;;;23.90;99.90;;;;;;5156954;27;19950;-74
2022/08/11 09:33:59;;;;;;;;;;;24.00;99.90;;;;;;5156351;27;19957;-74
2022/08/11 09:41:53;;;;;;;;;;;24.20;99.90;;;;;;5156953;27;20291;-74
2022/08/11 09:47:07;;;;;;;;;;;24.40;99.90;;;;;;5156488;27;19954;-74
2022/08/11 09:49:32;;;;;;;;;;;24.40;99.90;;;;;;5156741;27;20661;-75
2022/08/11 09:51:59;;;;;;;;;;;24.50;99.90;;;;;;5156500;27;19903;-75
2022/08/11 09:54:25;;;;;;;;;;;24.50;99.90;;;;;;5157042;27;19911;-74
2022/08/11 09:59:35;;;;;;;;;;;24.50;99.90;;;;;;5157059;27;19956;-74
2022/08/11 10:02:02;;;;;;;;;;;24.60;99.90;;;;;;5156380;27;19911;-74
2022/08/11 10:04:37;;;;;;;;;;;24.70;99.90;;;;;;5138746;27;19934;-74
2022/08/11 10:07:08;;;;;;;;;;;24.80;99.90;;;;;;5156024;27;19990;-75
2022/08/11 10:09:36;;;;;;;;;;;24.80;99.90;;;;;;5156720;27;19907;-74
2022/08/11 10:12:05;;;;;;;;;;;24.80;99.90;;;;;;5156148;27;19932;-74
2022/08/11 10:17:17;;;;;;;;;;;25.00;99.90;;;;;;5156695;27;19952;-75
2022/08/11 10:19:45;;;;;;;;;;;25.10;99.90;;;;;;5156071;27;19926;-74
2022/08/11 10:27:43;;;;;;;;;;;25.20;99.90;;;;;;5156252;27;19910;-74
2022/08/11 10:35:40;;;;;;;;;;;25.20;99.90;;;;;;5156083;27;20055;-74
2022/08/11 10:38:06;;;;;;;;;;;25.30;99.90;;;;;;5155441;27;19907;-75
2022/08/11 10:40:32;;;;;;;;;;;25.30;99.90;;;;;;5155975;27;19915;-74
2022/08/11 10:43:01;;;;;;;;;;;25.40;99.90;;;;;;5155558;27;19907;-74
2022/08/11 10:48:19;;;;;;;;;;;25.40;99.90;;;;;;5158316;27;20021;-75
2022/08/11 10:59:03;;;;;;;;;;;25.50;99.90;;;;;;5155972;27;19957;-74
2022/08/11 11:01:31;;;;;;;;;;;25.50;99.90;;;;;;5155245;27;20370;-75
2022/08/11 11:03:59;;;;;;;;;;;25.50;99.90;;;;;;5154406;27;19907;-75
2022/08/11 11:06:32;;;;;;;;;;;25.30;99.90;;;;;;5155231;27;19903;-76
2022/08/11 11:09:01;;;;;;;;;;;25.30;99.90;;;;;;5155299;27;19903;-75
2022/08/11 11:19:50;;;;;;;;;;;25.30;99.90;;;;;;5154114;27;19926;-75
2022/08/11 11:25:21;;;;;;;;;;;25.30;99.90;;;;;;5118786;27;19910;-75
2022/08/11 11:27:53;;;;;;;;;;;25.30;99.90;;;;;;5135507;27;19907;-75
2022/08/11 11:30:19;;;;;;;;;;;25.30;99.90;;;;;;5154557;27;19955;-76
2022/08/11 11:32:58;;;;;;;;;;;25.30;99.90;;;;;;5154076;27;19910;-76
2022/08/11 11:35:43;;;;;;;;;;;25.30;99.90;;;;;;5154401;27;19908;-75
2022/08/11 11:38:09;;;;;;;;;;;25.40;99.90;;;;;;5153981;27;19947;-74
2022/08/11 11:40:36;;;;;;;;;;;25.40;99.70;;;;;;5153303;27;19915;-74
2022/08/11 11:43:02;;;;;;;;;;;25.50;99.60;;;;;;5153814;27;19997;-75
2022/08/11 11:45:28;;;;;;;;;;;25.50;99.90;;;;;;5154151;27;19903;-74
2022/08/11 11:47:54;;;;;;;;;;;25.50;99.90;;;;;;5153424;27;20085;-74
2022/08/11 11:50:25;;;;;;;;;;;25.50;99.90;;;;;;5153995;27;19910;-74
2022/08/11 11:52:52;;;;;;;;;;;25.60;99.90;;;;;;5153513;27;19953;-74
2022/08/11 11:55:19;;;;;;;;;;;25.70;99.90;;;;;;5153341;27;19907;-74
2022/08/11 12:03:14;;;;;;;;;;;25.50;99.90;;;;;;5154344;27;19926;-74
2022/08/11 12:05:40;;;;;;;;;;;25.40;99.90;;;;;;5154241;27;20358;-74
2022/08/11 12:08:13;;;;;;;;;;;25.50;99.90;;;;;;5153890;27;20646;-75
2022/08/11 12:10:43;;;;;;;;;;;25.40;99.90;;;;;;5154211;27;19903;-74
2022/08/11 12:15:54;;;;;;;;;;;25.30;99.90;;;;;;5153797;27;19929;-74
2022/08/11 12:18:19;;;;;;;;;;;25.30;99.90;;;;;;5135667;27;19914;-74
2022/08/11 12:20:45;;;;;;;;;;;25.20;99.90;;;;;;5154287;27;19903;-75
2022/08/11 12:28:41;;;;;;;;;;;25.20;99.90;;;;;;5154432;27;20438;-74
2022/08/11 12:31:08;;;;;;;;;;;25.20;99.60;;;;;;5153573;27;20370;-74
2022/08/11 12:33:35;;;;;;;;;;;25.20;99.90;;;;;;5154088;27;19907;-75
2022/08/11 12:36:01;;;;;;;;;;;25.10;99.40;;;;;;5153633;27;19939;-75
2022/08/11 12:38:27;;;;;;;;;;;25.10;99.80;;;;;;5135848;27;19954;-74
2022/08/11 12:46:22;;;;;;;;;;;25.20;99.90;;;;;;5153842;27;19909;-74
2022/08/11 12:51:57;;;;;;;;;;;25.20;99.00;;;;;;5153187;27;20202;-76
2022/08/11 12:54:25;;;;;;;;;;;25.30;97.60;;;;;;5158243;27;19907;-75
2022/08/11 13:05:11;;;;;;;;;;;25.20;99.90;;;;;;5157013;27;19930;-75
2022/08/11 13:07:39;;;;;;;;;;;25.20;99.90;;;;;;5157865;27;19903;-75
2022/08/11 13:10:07;;;;;;;;;;;25.20;99.90;;;;;;5157249;27;19903;-76
2022/08/11 13:12:47;;;;;;;;;;;25.20;99.90;;;;;;5157627;27;20013;-74
2022/08/11 13:15:17;;;;;;;;;;;25.20;99.90;;;;;;5157437;27;19907;-75
2022/08/11 13:17:43;;;;;;;;;;;25.30;99.90;;;;;;5139115;27;19903;-75
2022/08/11 13:20:09;;;;;;;;;;;25.30;99.90;;;;;;5157127;27;19907;-75
2022/08/11 13:22:35;;;;;;;;;;;25.30;99.90;;;;;;5157573;27;19959;-75
2022/08/11 13:25:03;;;;;;;;;;;25.30;99.90;;;;;;5156698;27;20208;-75
2022/08/11 13:27:28;;;;;;;;;;;25.40;99.90;;;;;;5157467;27;19904;-75
2022/08/11 13:31:09;;;;;;;;;;;25.30;99.90;;;;;;5156656;27;19990;-75
2022/08/11 13:32:41;;;;;;;;;;;25.30;99.90;;;;;;5156631;27;19907;-75
2022/08/11 13:35:08;;;;;;;;;;;25.40;99.90;;;;;;5156686;27;20361;-75
2022/08/11 13:37:35;;;;;;;;;;;25.30;99.90;;;;;;5157232;27;19911;-75
2022/08/11 13:40:01;;;;;;;;;;;25.30;99.90;;;;;;5156710;27;20298;-75
2022/08/11 13:42:27;;;;;;;;;;;25.30;99.90;;;;;;5157386;27;19919;-75
2022/08/11 13:44:55;;;;;;;;;;;25.30;99.90;;;;;;5156474;27;19907;-75
2022/08/11 13:47:22;;;;;;;;;;;25.30;99.90;;;;;;5156830;27;19903;-74
2022/08/11 13:49:49;;;;;;;;;;;25.40;99.90;;;;;;5156577;27;20059;-76
2022/08/11 13:52:15;;;;;;;;;;;25.50;99.90;;;;;;5156530;27;20008;-74
2022/08/11 13:54:41;;;;;;;;;;;25.50;99.90;;;;;;5157269;27;20008;-74
2022/08/11 13:57:08;;;;;;;;;;;25.60;99.90;;;;;;5156368;27;19940;-75
2022/08/11 13:59:34;;;;;;;;;;;25.70;99.90;;;;;;5156444;27;20271;-76
2022/08/11 14:02:02;;;;;;;;;;;25.60;99.90;;;;;;5155877;27;19914;-75
2022/08/11 14:04:28;;;;;;;;;;;25.60;99.90;;;;;;5154949;27;19903;-74
2022/08/11 14:06:54;;;;;;;;;;;25.70;99.90;;;;;;5137780;27;19911;-75
2022/08/11 14:09:21;;;;;;;;;;;25.70;99.90;;;;;;5156112;27;19903;-75
2022/08/11 14:14:34;;;;;;;;;;;25.50;99.90;;;;;;5155853;27;20318;-75
2022/08/11 14:17:09;;;;;;;;;;;25.50;99.90;;;;;;5155065;27;19911;-75
2022/08/11 14:19:38;;;;;;;;;;;25.50;99.90;;;;;;5137652;27;19903;-74
2022/08/11 14:22:07;;;;;;;;;;;25.50;99.20;;;;;;5154983;27;19907;-75
2022/08/11 14:24:37;;;;;;;;;;;25.50;99.90;;;;;;5155908;27;19963;-76
2022/08/11 14:27:03;;;;;;;;;;;25.60;99.60;;;;;;5136754;27;20304;-76
2022/08/11 14:29:31;;;;;;;;;;;25.60;98.50;;;;;;5155959;27;19929;-76
2022/08/11 14:32:01;;;;;;;;;;;25.60;99.10;;;;;;5155054;27;20359;-76
2022/08/11 14:34:31;;;;;;;;;;;25.60;98.30;;;;;;5155395;27;20304;-76
2022/08/11 14:37:01;;;;;;;;;;;25.70;98.80;;;;;;5155248;27;19950;-76
2022/08/11 14:39:28;;;;;;;;;;;25.80;98.60;;;;;;5155522;27;20005;-75
2022/08/11 14:47:26;;;;;;;;;;;26.10;96.90;;;;;;5154764;27;19952;-74
2022/08/11 14:49:55;;;;;;;;;;;26.30;96.50;;;;;;5155337;27;19903;-75
2022/08/11 14:52:21;;;;;;;;;;;26.30;97.00;;;;;;5155553;27;19910;-76
2022/08/11 14:57:35;;;;;;;;;;;26.50;96.60;;;;;;5155539;27;19915;-75
2022/08/11 15:00:02;;;;;;;;;;;26.50;96.10;;;;;;5155484;27;20048;-75
2022/08/11 15:05:13;;;;;;;;;;;26.40;95.60;;;;;;5139572;27;19914;-76
2022/08/11 15:07:40;;;;;;;;;;;26.30;94.90;;;;;;5155708;27;19903;-75
2022/08/11 15:10:07;;;;;;;;;;;26.40;95.40;;;;;;5154863;27;20373;-75
2022/08/11 15:12:33;;;;;;;;;;;26.60;95.30;;;;;;5155469;27;19903;-75
2022/08/11 15:17:49;;;;;;;;;;;27.10;93.30;;;;;;5155299;27;19910;-75
2022/08/11 15:25:47;;;;;;;;;;;28.00;92.10;;;;;;5155354;27;19910;-76
2022/08/11 15:39:18;;;;;;;;;;;29.10;84.00;;;;;;5154655;27;19953;-74
2022/08/11 15:47:24;;;;;;;;;;;29.30;84.60;;;;;;5154447;27;19928;-76
2022/08/11 15:49:51;;;;;;;;;;;29.20;83.50;;;;;;5154826;27;20232;-76
2022/08/11 15:52:20;;;;;;;;;;;29.00;82.60;;;;;;5154024;27;20367;-75
2022/08/11 15:54:46;;;;;;;;;;;28.60;79.60;;;;;;5154403;27;19911;-75
2022/08/11 16:04:10;;;;;;;;;;;28.60;82.40;;;;;;5154048;27;19903;-76
2022/08/11 16:05:16;;;;;;;;;;;28.40;80.10;;;;;;5154108;27;19904;-76
2022/08/11 16:07:47;;;;;;;;;;;28.30;78.50;;;;;;5154701;27;19948;-75
2022/08/11 16:10:20;;;;;;;;;;;28.40;78.10;;;;;;5153917;27;19910;-76
2022/08/11 16:18:19;;;;;;;;;;;28.60;76.40;;;;;;5154159;27;19948;-76
2022/08/11 16:20:45;;;;;;;;;;;28.50;79.50;;;;;;5136023;27;19903;-75
2022/08/11 16:23:13;;;;;;;;;;;28.50;79.20;;;;;;5153495;27;19903;-76
2022/08/11 16:25:39;;;;;;;;;;;28.70;79.90;;;;;;5153979;27;19903;-76
2022/08/11 16:28:06;;;;;;;;;;;29.10;80.40;;;;;;5156579;27;19907;-77
2022/08/11 16:30:33;;;;;;;;;;;28.70;77.50;;;;;;5158985;27;19909;-77
2022/08/11 16:33:00;;;;;;;;;;;28.70;77.20;;;;;;5139823;27;19907;-76
2022/08/11 16:40:56;;;;;;;;;;;28.50;77.00;;;;;;5146383;27;20002;-77
2022/08/11 16:48:54;;;;;;;;;;;27.40;75.80;;;;;;5143000;27;19909;-76
2022/08/11 16:51:20;;;;;;;;;;;27.30;77.30;;;;;;5136472;27;19908;-76
2022/08/11 16:53:46;;;;;;;;;;;27.40;76.40;;;;;;5136697;27;20271;-77
2022/08/11 16:56:15;;;;;;;;;;;27.50;76.60;;;;;;5136734;27;19913;-77
2022/08/11 17:01:27;;;;;;;;;;;28.10;76.80;;;;;;5136780;27;19956;-77
2022/08/11 17:15:00;;;;;;;;;;;27.90;75.20;;;;;;5136627;27;20243;-77
2022/08/11 17:17:26;;;;;;;;;;;27.50;74.20;;;;;;5135994;27;20363;-77
2022/08/11 17:19:54;;;;;;;;;;;27.00;74.70;;;;;;5136372;27;19903;-77
2022/08/11 17:25:05;;;;;;;;;;;26.30;73.20;;;;;;5135918;27;20354;-77
2022/08/11 17:27:32;;;;;;;;;;;26.00;74.00;;;;;;5135953;27;19994;-78
2022/08/11 17:29:58;;;;;;;;;;;25.70;73.80;;;;;;5135856;27;19904;-78
2022/08/11 17:35:32;;;;;;;;;;;25.20;74.50;;;;;;5135329;27;20381;-77
2022/08/11 17:37:59;;;;;;;;;;;25.00;74.10;;;;;;5135892;27;19914;-77
2022/08/11 17:40:25;;;;;;;;;;;24.90;76.00;;;;;;5135459;27;19912;-77
2022/08/11 17:48:27;;;;;;;;;;;24.60;75.80;;;;;;5096507;27;19949;-76
2022/08/11 17:51:07;;;;;;;;;;;24.50;76.30;;;;;;5135920;27;19903;-76
2022/08/11 18:01:51;;;;;;;;;;;24.30;76.00;;;;;;5135164;27;19910;-76
2022/08/11 18:04:17;;;;;;;;;;;24.20;76.10;;;;;;5134609;27;19912;-76
2022/08/11 18:06:44;;;;;;;;;;;24.10;75.80;;;;;;5135452;27;19956;-76
